sensor_id;sensor_type;location;lat;lon;timestamp;temperature;humidity
16995;DHT22;8614;48.522;9.206;2022-09-09T00:00:25;15.10;99.90
16995;DHT22;8614;48.522;9.206;2022-09-09T00:02:58;15.00;99.90
16995;DHT22;8614;48.522;9.206;2022-09-09T00:05:31;15.00;99.90
16995;DHT22;8614;48.522;9.206;2022-09-09T00:08:02;14.90;99.90
16995;DHT22;8614;48.522;9.206;2022-09-09T00:10:33;14.90;99.90
16995;DHT22;8614;48.522;9.206;2022-09-09T00:13:13;14.90;99.90
16995;DHT22;8614;48.522;9.206;2022-09-09T00:15:47;14.80;99.90
16995;DHT22;8614;48.522;9.206;2022-09-09T00:18:22;14.80;99.90
16995;DHT22;8614;48.522;9.206;2022-09-09T00:20:56;14.80;99.90
16995;DHT22;8614;48.522;9.206;2022-09-09T00:23:25;14.80;99.90
16995;DHT22;8614;48.522;9.206;2022-09-09T00:26:02;14.80;99.90
16995;DHT22;8614;48.522;9.206;2022-09-09T00:28:38;14.80;99.90
16995;DHT22;8614;48.522;9.206;2022-09-09T00:31:12;14.70;99.90
16995;DHT22;8614;48.522;9.206;2022-09-09T00:33:40;14.70;99.90
16995;DHT22;8614;48.522;9.206;2022-09-09T00:36:13;14.60;99.90
16995;DHT22;8614;48.522;9.206;2022-09-09T00:38:45;14.70;99.90
16995;DHT22;8614;48.522;9.206;2022-09-09T00:41:19;14.70;99.90
16995;DHT22;8614;48.522;9.206;2022-09-09T00:43:55;14.70;99.90
16995;DHT22;8614;48.522;9.206;2022-09-09T00:46:49;14.70;99.90
16995;DHT22;8614;48.522;9.206;2022-09-09T00:49:27;14.70;99.90
16995;DHT22;8614;48.522;9.206;2022-09-09T00:52:08;14.70;99.90
16995;DHT22;8614;48.522;9.206;2022-09-09T00:54:45;14.70;99.90
16995;DHT22;8614;48.522;9.206;2022-09-09T00:57:22;14.70;99.90
16995;DHT22;8614;48.522;9.206;2022-09-09T00:59:56;14.70;99.90
16995;DHT22;8614;48.522;9.206;2022-09-09T01:02:28;14.60;99.90
16995;DHT22;8614;48.522;9.206;2022-09-09T01:05:05;14.60;99.90
16995;DHT22;8614;48.522;9.206;2022-09-09T01:07:33;14.60;99.90
16995;DHT22;8614;48.522;9.206;2022-09-09T01:10:03;14.60;99.90
16995;DHT22;8614;48.522;9.206;2022-09-09T01:12:35;14.60;99.90
16995;DHT22;8614;48.522;9.206;2022-09-09T01:15:11;14.60;99.90
16995;DHT22;8614;48.522;9.206;2022-09-09T01:17:52;14.50;99.90
16995;DHT22;8614;48.522;9.206;2022-09-09T01:20:23;14.50;99.90
16995;DHT22;8614;48.522;9.206;2022-09-09T01:23:06;14.50;99.90
16995;DHT22;8614;48.522;9.206;2022-09-09T01:28:47;14.40;99.90
16995;DHT22;8614;48.522;9.206;2022-09-09T01:31:18;14.30;99.90
16995;DHT22;8614;48.522;9.206;2022-09-09T01:33:47;14.30;99.90
16995;DHT22;8614;48.522;9.206;2022-09-09T01:36:21;14.20;99.90
16995;DHT22;8614;48.522;9.206;2022-09-09T01:38:52;14.20;99.90
16995;DHT22;8614;48.522;9.206;2022-09-09T01:41:19;14.20;99.90
16995;DHT22;8614;48.522;9.206;2022-09-09T01:43:55;14.10;99.90
16995;DHT22;8614;48.522;9.206;2022-09-09T01:46:23;14.10;99.90
16995;DHT22;8614;48.522;9.206;2022-09-09T01:48:52;14.10;99.90
16995;DHT22;8614;48.522;9.206;2022-09-09T01:51:20;14.00;99.90
16995;DHT22;8614;48.522;9.206;2022-09-09T01:53:47;14.00;99.90
16995;DHT22;8614;48.522;9.206;2022-09-09T01:56:25;14.00;99.90
16995;DHT22;8614;48.522;9.206;2022-09-09T01:59:12;14.00;99.90
16995;DHT22;8614;48.522;9.206;2022-09-09T02:01:52;14.00;99.90
16995;DHT22;8614;48.522;9.206;2022-09-09T02:04:31;13.90;99.90
16995;DHT22;8614;48.522;9.206;2022-09-09T02:07:02;13.90;99.90
16995;DHT22;8614;48.522;9.206;2022-09-09T02:09:32;13.90;99.90
16995;DHT22;8614;48.522;9.206;2022-09-09T02:12:03;13.80;99.90
16995;DHT22;8614;48.522;9.206;2022-09-09T02:14:48;13.80;99.90
16995;DHT22;8614;48.522;9.206;2022-09-09T02:17:20;13.70;99.90
16995;DHT22;8614;48.522;9.206;2022-09-09T02:20:06;13.70;99.90
16995;DHT22;8614;48.522;9.206;2022-09-09T02:22:45;13.70;99.90
16995;DHT22;8614;48.522;9.206;2022-09-09T02:25:19;13.70;99.90
16995;DHT22;8614;48.522;9.206;2022-09-09T02:27:48;13.70;99.90
16995;DHT22;8614;48.522;9.206;2022-09-09T02:30:19;13.70;99.90
16995;DHT22;8614;48.522;9.206;2022-09-09T02:32:53;13.70;99.90
16995;DHT22;8614;48.522;9.206;2022-09-09T02:35:25;13.70;99.90
16995;DHT22;8614;48.522;9.206;2022-09-09T02:37:58;13.70;99.90
16995;DHT22;8614;48.522;9.206;2022-09-09T02:40:26;13.70;99.90
16995;DHT22;8614;48.522;9.206;2022-09-09T02:42:59;13.70;99.90
16995;DHT22;8614;48.522;9.206;2022-09-09T02:45:35;13.70;99.90
16995;DHT22;8614;48.522;9.206;2022-09-09T02:48:08;13.80;99.90
16995;DHT22;8614;48.522;9.206;2022-09-09T02:50:41;13.90;99.90
16995;DHT22;8614;48.522;9.206;2022-09-09T02:53:16;13.90;99.90
16995;DHT22;8614;48.522;9.206;2022-09-09T02:55:47;13.80;99.90
16995;DHT22;8614;48.522;9.206;2022-09-09T02:58:18;13.80;99.90
16995;DHT22;8614;48.522;9.206;2022-09-09T03:00:56;13.90;99.90
16995;DHT22;8614;48.522;9.206;2022-09-09T03:03:25;13.90;99.90
16995;DHT22;8614;48.522;9.206;2022-09-09T03:05:52;13.90;99.90
16995;DHT22;8614;48.522;9.206;2022-09-09T03:08:19;13.80;99.90
16995;DHT22;8614;48.522;9.206;2022-09-09T03:10:47;13.80;99.90
16995;DHT22;8614;48.522;9.206;2022-09-09T03:13:15;13.80;99.90
16995;DHT22;8614;48.522;9.206;2022-09-09T03:15:43;13.80;99.90
16995;DHT22;8614;48.522;9.206;2022-09-09T03:18:16;13.90;99.90
16995;DHT22;8614;48.522;9.206;2022-09-09T03:20:47;13.90;99.90
16995;DHT22;8614;48.522;9.206;2022-09-09T03:23:15;13.90;99.90
16995;DHT22;8614;48.522;9.206;2022-09-09T03:25:47;14.00;99.90
16995;DHT22;8614;48.522;9.206;2022-09-09T03:28:16;14.10;99.90
16995;DHT22;8614;48.522;9.206;2022-09-09T03:30:43;14.20;99.90
16995;DHT22;8614;48.522;9.206;2022-09-09T03:33:10;14.10;99.90
16995;DHT22;8614;48.522;9.206;2022-09-09T03:35:45;14.20;99.90
16995;DHT22;8614;48.522;9.206;2022-09-09T03:38:15;14.30;99.90
16995;DHT22;8614;48.522;9.206;2022-09-09T03:40:49;14.20;99.90
16995;DHT22;8614;48.522;9.206;2022-09-09T03:43:17;14.30;99.90
16995;DHT22;8614;48.522;9.206;2022-09-09T03:45:45;14.30;99.90
16995;DHT22;8614;48.522;9.206;2022-09-09T03:48:13;14.40;99.90
16995;DHT22;8614;48.522;9.206;2022-09-09T03:50:45;14.40;99.90
16995;DHT22;8614;48.522;9.206;2022-09-09T03:53:12;14.30;99.90
16995;DHT22;8614;48.522;9.206;2022-09-09T03:55:39;14.30;99.90
16995;DHT22;8614;48.522;9.206;2022-09-09T03:58:07;14.30;99.90
16995;DHT22;8614;48.522;9.206;2022-09-09T04:00:34;14.30;99.90
16995;DHT22;8614;48.522;9.206;2022-09-09T04:03:02;14.30;99.90
16995;DHT22;8614;48.522;9.206;2022-09-09T04:05:29;14.40;99.90
16995;DHT22;8614;48.522;9.206;2022-09-09T04:07:57;14.50;99.90
16995;DHT22;8614;48.522;9.206;2022-09-09T04:10:24;14.50;99.90
16995;DHT22;8614;48.522;9.206;2022-09-09T04:12:53;14.60;99.90
16995;DHT22;8614;48.522;9.206;2022-09-09T04:15:21;14.60;99.90
16995;DHT22;8614;48.522;9.206;2022-09-09T04:17:47;14.70;99.90
16995;DHT22;8614;48.522;9.206;2022-09-09T04:20:16;14.70;99.90
16995;DHT22;8614;48.522;9.206;2022-09-09T04:22:44;14.70;99.90
16995;DHT22;8614;48.522;9.206;2022-09-09T04:25:12;14.70;99.90
16995;DHT22;8614;48.522;9.206;2022-09-09T04:27:40;14.70;99.90
16995;DHT22;8614;48.522;9.206;2022-09-09T04:30:09;14.60;99.90
16995;DHT22;8614;48.522;9.206;2022-09-09T04:32:39;14.70;99.90
16995;DHT22;8614;48.522;9.206;2022-09-09T04:35:06;14.60;99.90
16995;DHT22;8614;48.522;9.206;2022-09-09T04:37:34;14.60;99.90
16995;DHT22;8614;48.522;9.206;2022-09-09T04:40:01;14.60;99.90
16995;DHT22;8614;48.522;9.206;2022-09-09T04:42:34;14.60;99.90
16995;DHT22;8614;48.522;9.206;2022-09-09T04:45:01;14.50;99.90
16995;DHT22;8614;48.522;9.206;2022-09-09T04:47:28;14.50;99.90
16995;DHT22;8614;48.522;9.206;2022-09-09T04:49:55;14.50;99.90
16995;DHT22;8614;48.522;9.206;2022-09-09T04:52:23;14.50;99.90
16995;DHT22;8614;48.522;9.206;2022-09-09T04:54:50;14.50;99.90
16995;DHT22;8614;48.522;9.206;2022-09-09T04:57:17;14.50;99.90
16995;DHT22;8614;48.522;9.206;2022-09-09T04:59:46;14.50;99.90
16995;DHT22;8614;48.522;9.206;2022-09-09T05:02:14;14.50;99.90
16995;DHT22;8614;48.522;9.206;2022-09-09T05:04:40;14.50;99.90
16995;DHT22;8614;48.522;9.206;2022-09-09T05:07:07;14.50;99.90
16995;DHT22;8614;48.522;9.206;2022-09-09T05:09:34;14.50;99.90
16995;DHT22;8614;48.522;9.206;2022-09-09T05:12:01;14.50;99.90
16995;DHT22;8614;48.522;9.206;2022-09-09T05:14:33;14.50;99.90
16995;DHT22;8614;48.522;9.206;2022-09-09T05:17:03;14.50;99.90
16995;DHT22;8614;48.522;9.206;2022-09-09T05:19:31;14.50;99.90
16995;DHT22;8614;48.522;9.206;2022-09-09T05:21:58;14.60;99.90
16995;DHT22;8614;48.522;9.206;2022-09-09T05:24:34;14.70;99.90
16995;DHT22;8614;48.522;9.206;2022-09-09T05:27:03;14.80;99.90
16995;DHT22;8614;48.522;9.206;2022-09-09T05:29:32;14.90;99.90
16995;DHT22;8614;48.522;9.206;2022-09-09T05:32:02;14.90;99.90
16995;DHT22;8614;48.522;9.206;2022-09-09T05:34:30;15.00;99.90
16995;DHT22;8614;48.522;9.206;2022-09-09T05:36:57;15.00;99.90
16995;DHT22;8614;48.522;9.206;2022-09-09T05:39:25;15.00;99.90
16995;DHT22;8614;48.522;9.206;2022-09-09T05:41:52;15.10;99.90
16995;DHT22;8614;48.522;9.206;2022-09-09T05:44:19;15.10;99.90
16995;DHT22;8614;48.522;9.206;2022-09-09T05:46:46;15.20;99.90
16995;DHT22;8614;48.522;9.206;2022-09-09T05:49:15;15.30;99.90
16995;DHT22;8614;48.522;9.206;2022-09-09T05:51:42;15.40;99.90
16995;DHT22;8614;48.522;9.206;2022-09-09T05:54:12;15.50;99.90
16995;DHT22;8614;48.522;9.206;2022-09-09T05:56:43;15.50;99.90
16995;DHT22;8614;48.522;9.206;2022-09-09T05:59:10;15.60;99.90
16995;DHT22;8614;48.522;9.206;2022-09-09T06:01:38;15.70;99.90
16995;DHT22;8614;48.522;9.206;2022-09-09T06:04:07;15.70;99.90
16995;DHT22;8614;48.522;9.206;2022-09-09T06:06:37;15.80;99.90
16995;DHT22;8614;48.522;9.206;2022-09-09T06:09:12;15.90;99.90
16995;DHT22;8614;48.522;9.206;2022-09-09T06:11:42;15.90;99.90
16995;DHT22;8614;48.522;9.206;2022-09-09T06:14:10;16.00;99.90
16995;DHT22;8614;48.522;9.206;2022-09-09T06:16:38;16.10;99.90
16995;DHT22;8614;48.522;9.206;2022-09-09T06:19:11;16.20;99.90
16995;DHT22;8614;48.522;9.206;2022-09-09T06:21:40;16.30;99.90
16995;DHT22;8614;48.522;9.206;2022-09-09T06:24:09;16.30;99.90
16995;DHT22;8614;48.522;9.206;2022-09-09T06:26:37;16.40;99.90
16995;DHT22;8614;48.522;9.206;2022-09-09T06:29:07;16.60;99.90
16995;DHT22;8614;48.522;9.206;2022-09-09T06:31:35;16.80;99.90
16995;DHT22;8614;48.522;9.206;2022-09-09T06:34:13;17.00;99.90
16995;DHT22;8614;48.522;9.206;2022-09-09T06:36:45;17.10;99.90
16995;DHT22;8614;48.522;9.206;2022-09-09T06:39:13;17.30;99.90
16995;DHT22;8614;48.522;9.206;2022-09-09T06:41:41;17.50;99.90
16995;DHT22;8614;48.522;9.206;2022-09-09T06:44:21;17.70;99.90
16995;DHT22;8614;48.522;9.206;2022-09-09T06:46:48;18.00;99.90
16995;DHT22;8614;48.522;9.206;2022-09-09T06:49:15;18.20;99.90
16995;DHT22;8614;48.522;9.206;2022-09-09T06:51:42;18.40;99.90
16995;DHT22;8614;48.522;9.206;2022-09-09T06:54:13;18.50;99.90
16995;DHT22;8614;48.522;9.206;2022-09-09T06:56:43;18.70;99.90
16995;DHT22;8614;48.522;9.206;2022-09-09T06:59:18;18.70;99.90
16995;DHT22;8614;48.522;9.206;2022-09-09T07:01:46;18.80;99.90
16995;DHT22;8614;48.522;9.206;2022-09-09T07:04:15;19.00;99.90
16995;DHT22;8614;48.522;9.206;2022-09-09T07:06:45;19.10;99.90
16995;DHT22;8614;48.522;9.206;2022-09-09T07:09:18;19.20;99.90
16995;DHT22;8614;48.522;9.206;2022-09-09T07:11:49;19.10;99.90
16995;DHT22;8614;48.522;9.206;2022-09-09T07:14:18;19.10;99.90
16995;DHT22;8614;48.522;9.206;2022-09-09T07:16:48;19.20;99.90
16995;DHT22;8614;48.522;9.206;2022-09-09T07:19:16;19.30;99.90
16995;DHT22;8614;48.522;9.206;2022-09-09T07:21:45;19.50;99.90
16995;DHT22;8614;48.522;9.206;2022-09-09T07:24:17;19.70;99.90
16995;DHT22;8614;48.522;9.206;2022-09-09T07:26:45;19.80;99.90
16995;DHT22;8614;48.522;9.206;2022-09-09T07:29:12;19.90;99.90
16995;DHT22;8614;48.522;9.206;2022-09-09T07:31:42;20.10;99.90
16995;DHT22;8614;48.522;9.206;2022-09-09T07:34:16;20.30;99.90
16995;DHT22;8614;48.522;9.206;2022-09-09T07:36:44;20.50;99.90
16995;DHT22;8614;48.522;9.206;2022-09-09T07:39:13;20.70;99.90
16995;DHT22;8614;48.522;9.206;2022-09-09T07:41:48;21.00;99.90
16995;DHT22;8614;48.522;9.206;2022-09-09T07:44:20;21.20;99.90
16995;DHT22;8614;48.522;9.206;2022-09-09T07:46:50;21.20;99.90
16995;DHT22;8614;48.522;9.206;2022-09-09T07:49:22;21.60;99.90
16995;DHT22;8614;48.522;9.206;2022-09-09T07:51:49;21.70;99.90
16995;DHT22;8614;48.522;9.206;2022-09-09T07:54:19;21.80;99.90
16995;DHT22;8614;48.522;9.206;2022-09-09T07:56:51;22.00;99.90
16995;DHT22;8614;48.522;9.206;2022-09-09T07:59:21;22.30;99.90
16995;DHT22;8614;48.522;9.206;2022-09-09T08:01:52;22.70;99.90
16995;DHT22;8614;48.522;9.206;2022-09-09T08:04:24;22.50;99.90
16995;DHT22;8614;48.522;9.206;2022-09-09T08:06:53;22.80;99.90
16995;DHT22;8614;48.522;9.206;2022-09-09T08:09:23;23.00;99.90
16995;DHT22;8614;48.522;9.206;2022-09-09T08:11:56;23.50;99.90
16995;DHT22;8614;48.522;9.206;2022-09-09T08:14:24;24.30;99.90
16995;DHT22;8614;48.522;9.206;2022-09-09T08:16:52;24.70;99.90
16995;DHT22;8614;48.522;9.206;2022-09-09T08:19:21;24.50;99.90
16995;DHT22;8614;48.522;9.206;2022-09-09T08:21:49;24.10;99.90
16995;DHT22;8614;48.522;9.206;2022-09-09T08:24:16;23.80;99.90
16995;DHT22;8614;48.522;9.206;2022-09-09T08:26:48;23.60;99.90
16995;DHT22;8614;48.522;9.206;2022-09-09T08:29:19;23.00;99.90
16995;DHT22;8614;48.522;9.206;2022-09-09T08:31:48;22.70;99.90
16995;DHT22;8614;48.522;9.206;2022-09-09T08:34:16;22.40;99.90
16995;DHT22;8614;48.522;9.206;2022-09-09T08:36:46;22.20;99.90
16995;DHT22;8614;48.522;9.206;2022-09-09T08:39:15;22.20;99.90
16995;DHT22;8614;48.522;9.206;2022-09-09T08:42:02;22.40;99.90
16995;DHT22;8614;48.522;9.206;2022-09-09T08:44:46;22.70;99.90
16995;DHT22;8614;48.522;9.206;2022-09-09T08:47:22;22.90;99.90
16995;DHT22;8614;48.522;9.206;2022-09-09T08:50:05;22.90;99.90
16995;DHT22;8614;48.522;9.206;2022-09-09T08:52:38;23.00;99.90
16995;DHT22;8614;48.522;9.206;2022-09-09T08:55:15;22.80;99.90
16995;DHT22;8614;48.522;9.206;2022-09-09T08:57:48;22.60;99.90
16995;DHT22;8614;48.522;9.206;2022-09-09T09:00:16;22.60;99.90
16995;DHT22;8614;48.522;9.206;2022-09-09T09:02:49;22.40;99.90
16995;DHT22;8614;48.522;9.206;2022-09-09T09:05:28;22.30;99.90
16995;DHT22;8614;48.522;9.206;2022-09-09T09:08:05;22.30;99.90
16995;DHT22;8614;48.522;9.206;2022-09-09T09:10:44;22.30;99.90
16995;DHT22;8614;48.522;9.206;2022-09-09T09:13:18;22.40;99.90
16995;DHT22;8614;48.522;9.206;2022-09-09T09:15:50;22.50;99.90
16995;DHT22;8614;48.522;9.206;2022-09-09T09:18:18;22.50;99.90
16995;DHT22;8614;48.522;9.206;2022-09-09T09:20:58;22.80;99.90
16995;DHT22;8614;48.522;9.206;2022-09-09T09:23:34;23.40;99.90
16995;DHT22;8614;48.522;9.206;2022-09-09T09:26:07;23.30;99.90
16995;DHT22;8614;48.522;9.206;2022-09-09T09:28:36;23.30;99.90
16995;DHT22;8614;48.522;9.206;2022-09-09T09:31:13;23.70;99.90
16995;DHT22;8614;48.522;9.206;2022-09-09T09:33:48;24.10;99.90
16995;DHT22;8614;48.522;9.206;2022-09-09T09:36:16;24.40;99.90
16995;DHT22;8614;48.522;9.206;2022-09-09T09:38:53;24.70;99.90
16995;DHT22;8614;48.522;9.206;2022-09-09T09:41:33;24.90;99.90
16995;DHT22;8614;48.522;9.206;2022-09-09T09:44:05;25.30;99.90
16995;DHT22;8614;48.522;9.206;2022-09-09T09:46:34;25.40;99.90
16995;DHT22;8614;48.522;9.206;2022-09-09T09:49:09;25.50;99.90
16995;DHT22;8614;48.522;9.206;2022-09-09T09:51:39;25.30;99.90
16995;DHT22;8614;48.522;9.206;2022-09-09T09:54:17;25.40;99.90
16995;DHT22;8614;48.522;9.206;2022-09-09T09:56:51;25.30;99.90
16995;DHT22;8614;48.522;9.206;2022-09-09T09:59:32;25.30;99.90
16995;DHT22;8614;48.522;9.206;2022-09-09T10:02:14;25.30;99.90
16995;DHT22;8614;48.522;9.206;2022-09-09T10:04:42;25.50;99.90
16995;DHT22;8614;48.522;9.206;2022-09-09T10:07:11;25.50;99.90
16995;DHT22;8614;48.522;9.206;2022-09-09T10:09:38;25.30;99.90
16995;DHT22;8614;48.522;9.206;2022-09-09T10:12:16;24.90;99.90
16995;DHT22;8614;48.522;9.206;2022-09-09T10:14:49;24.60;99.90
16995;DHT22;8614;48.522;9.206;2022-09-09T10:17:29;24.30;99.90
16995;DHT22;8614;48.522;9.206;2022-09-09T10:20:12;24.00;99.90
16995;DHT22;8614;48.522;9.206;2022-09-09T10:22:45;24.10;99.90
16995;DHT22;8614;48.522;9.206;2022-09-09T10:25:26;24.30;99.90
16995;DHT22;8614;48.522;9.206;2022-09-09T10:28:16;24.30;99.90
16995;DHT22;8614;48.522;9.206;2022-09-09T10:30:53;24.40;99.90
16995;DHT22;8614;48.522;9.206;2022-09-09T10:33:28;24.60;99.90
16995;DHT22;8614;48.522;9.206;2022-09-09T10:36:05;24.70;99.90
16995;DHT22;8614;48.522;9.206;2022-09-09T10:38:39;24.50;99.90
16995;DHT22;8614;48.522;9.206;2022-09-09T10:41:19;24.40;99.90
16995;DHT22;8614;48.522;9.206;2022-09-09T10:47:10;24.10;99.90
16995;DHT22;8614;48.522;9.206;2022-09-09T10:50:04;24.10;99.90
16995;DHT22;8614;48.522;9.206;2022-09-09T10:52:40;24.20;99.90
16995;DHT22;8614;48.522;9.206;2022-09-09T10:55:12;24.30;99.90
16995;DHT22;8614;48.522;9.206;2022-09-09T10:57:42;24.30;99.90
16995;DHT22;8614;48.522;9.206;2022-09-09T11:00:16;24.30;99.90
16995;DHT22;8614;48.522;9.206;2022-09-09T11:02:43;24.30;99.90
16995;DHT22;8614;48.522;9.206;2022-09-09T11:05:17;24.30;99.90
16995;DHT22;8614;48.522;9.206;2022-09-09T11:07:48;24.30;99.90
16995;DHT22;8614;48.522;9.206;2022-09-09T11:10:22;24.30;99.90
16995;DHT22;8614;48.522;9.206;2022-09-09T11:12:53;24.30;99.90
16995;DHT22;8614;48.522;9.206;2022-09-09T11:15:26;24.30;99.90
16995;DHT22;8614;48.522;9.206;2022-09-09T11:17:58;24.30;99.90
16995;DHT22;8614;48.522;9.206;2022-09-09T11:20:26;24.40;99.90
16995;DHT22;8614;48.522;9.206;2022-09-09T11:22:57;24.50;99.90
16995;DHT22;8614;48.522;9.206;2022-09-09T11:25:29;24.40;99.90
16995;DHT22;8614;48.522;9.206;2022-09-09T11:28:10;24.60;99.90
16995;DHT22;8614;48.522;9.206;2022-09-09T11:30:51;24.80;99.90
16995;DHT22;8614;48.522;9.206;2022-09-09T11:33:36;24.40;99.90
16995;DHT22;8614;48.522;9.206;2022-09-09T11:39:36;23.40;99.90
16995;DHT22;8614;48.522;9.206;2022-09-09T11:42:16;22.80;99.90
16995;DHT22;8614;48.522;9.206;2022-09-09T11:44:44;22.60;99.90
16995;DHT22;8614;48.522;9.206;2022-09-09T11:47:24;22.50;99.90
16995;DHT22;8614;48.522;9.206;2022-09-09T11:49:55;22.40;99.90
16995;DHT22;8614;48.522;9.206;2022-09-09T11:52:38;22.20;99.90
16995;DHT22;8614;48.522;9.206;2022-09-09T11:55:12;22.20;99.90
16995;DHT22;8614;48.522;9.206;2022-09-09T11:57:57;22.50;99.90
16995;DHT22;8614;48.522;9.206;2022-09-09T12:00:33;22.70;99.90
16995;DHT22;8614;48.522;9.206;2022-09-09T12:03:01;22.80;99.90
16995;DHT22;8614;48.522;9.206;2022-09-09T12:05:37;22.90;99.90
16995;DHT22;8614;48.522;9.206;2022-09-09T12:08:08;22.90;99.90
16995;DHT22;8614;48.522;9.206;2022-09-09T12:10:39;22.80;99.90
16995;DHT22;8614;48.522;9.206;2022-09-09T12:13:16;22.70;99.90
16995;DHT22;8614;48.522;9.206;2022-09-09T12:15:47;22.70;99.90
16995;DHT22;8614;48.522;9.206;2022-09-09T12:18:16;22.70;99.90
16995;DHT22;8614;48.522;9.206;2022-09-09T12:20:54;22.70;99.90
16995;DHT22;8614;48.522;9.206;2022-09-09T12:23:32;22.60;99.90
16995;DHT22;8614;48.522;9.206;2022-09-09T12:26:12;22.50;99.90
16995;DHT22;8614;48.522;9.206;2022-09-09T12:28:51;22.30;99.90
16995;DHT22;8614;48.522;9.206;2022-09-09T12:31:22;22.30;99.90
16995;DHT22;8614;48.522;9.206;2022-09-09T12:33:51;22.40;99.90
16995;DHT22;8614;48.522;9.206;2022-09-09T12:36:20;22.30;99.90
16995;DHT22;8614;48.522;9.206;2022-09-09T12:38:49;22.10;99.90
16995;DHT22;8614;48.522;9.206;2022-09-09T12:41:22;22.10;99.90
16995;DHT22;8614;48.522;9.206;2022-09-09T12:43:50;22.10;99.90
16995;DHT22;8614;48.522;9.206;2022-09-09T12:46:27;22.30;99.90
16995;DHT22;8614;48.522;9.206;2022-09-09T12:48:57;22.40;99.90
16995;DHT22;8614;48.522;9.206;2022-09-09T12:51:27;22.40;99.90
16995;DHT22;8614;48.522;9.206;2022-09-09T12:53:57;22.40;99.90
16995;DHT22;8614;48.522;9.206;2022-09-09T12:56:25;22.40;99.90
16995;DHT22;8614;48.522;9.206;2022-09-09T12:58:55;22.30;99.90
16995;DHT22;8614;48.522;9.206;2022-09-09T13:01:25;22.40;99.90
16995;DHT22;8614;48.522;9.206;2022-09-09T13:03:52;22.30;99.90
16995;DHT22;8614;48.522;9.206;2022-09-09T13:06:22;22.40;99.90
16995;DHT22;8614;48.522;9.206;2022-09-09T13:08:59;22.40;99.90
16995;DHT22;8614;48.522;9.206;2022-09-09T13:11:30;22.30;99.90
16995;DHT22;8614;48.522;9.206;2022-09-09T13:13:59;22.40;99.90
16995;DHT22;8614;48.522;9.206;2022-09-09T13:16:27;22.60;99.90
16995;DHT22;8614;48.522;9.206;2022-09-09T13:18:57;22.80;99.90
16995;DHT22;8614;48.522;9.206;2022-09-09T13:21:32;22.90;99.90
16995;DHT22;8614;48.522;9.206;2022-09-09T13:24:01;23.00;99.90
16995;DHT22;8614;48.522;9.206;2022-09-09T13:26:29;22.90;99.90
16995;DHT22;8614;48.522;9.206;2022-09-09T13:29:09;22.70;99.90
16995;DHT22;8614;48.522;9.206;2022-09-09T13:31:40;22.30;99.90
16995;DHT22;8614;48.522;9.206;2022-09-09T13:34:11;22.10;99.90
16995;DHT22;8614;48.522;9.206;2022-09-09T13:36:40;21.90;99.90
16995;DHT22;8614;48.522;9.206;2022-09-09T13:39:16;21.80;99.90
16995;DHT22;8614;48.522;9.206;2022-09-09T13:41:44;21.90;99.90
16995;DHT22;8614;48.522;9.206;2022-09-09T13:44:19;21.90;99.90
16995;DHT22;8614;48.522;9.206;2022-09-09T13:47:00;22.00;99.90
16995;DHT22;8614;48.522;9.206;2022-09-09T13:49:29;21.90;99.90
16995;DHT22;8614;48.522;9.206;2022-09-09T13:52:09;21.90;99.90
16995;DHT22;8614;48.522;9.206;2022-09-09T13:54:38;21.90;99.90
16995;DHT22;8614;48.522;9.206;2022-09-09T13:57:05;21.80;99.90
16995;DHT22;8614;48.522;9.206;2022-09-09T13:59:32;21.80;99.90
16995;DHT22;8614;48.522;9.206;2022-09-09T14:01:59;21.80;99.90
16995;DHT22;8614;48.522;9.206;2022-09-09T14:04:27;21.80;99.90
16995;DHT22;8614;48.522;9.206;2022-09-09T14:06:54;21.80;99.90
16995;DHT22;8614;48.522;9.206;2022-09-09T14:09:22;21.90;99.90
16995;DHT22;8614;48.522;9.206;2022-09-09T14:11:50;21.90;99.90
16995;DHT22;8614;48.522;9.206;2022-09-09T14:14:17;21.80;99.90
16995;DHT22;8614;48.522;9.206;2022-09-09T14:16:44;21.80;99.90
16995;DHT22;8614;48.522;9.206;2022-09-09T14:19:10;21.80;99.90
16995;DHT22;8614;48.522;9.206;2022-09-09T14:21:37;21.80;99.90
16995;DHT22;8614;48.522;9.206;2022-09-09T14:24:04;21.80;99.90
16995;DHT22;8614;48.522;9.206;2022-09-09T14:26:32;21.70;99.90
16995;DHT22;8614;48.522;9.206;2022-09-09T14:29:00;21.70;99.90
16995;DHT22;8614;48.522;9.206;2022-09-09T14:31:27;21.80;99.90
16995;DHT22;8614;48.522;9.206;2022-09-09T14:33:53;21.90;99.90
16995;DHT22;8614;48.522;9.206;2022-09-09T14:36:20;21.90;99.90
16995;DHT22;8614;48.522;9.206;2022-09-09T14:38:48;21.90;99.90
16995;DHT22;8614;48.522;9.206;2022-09-09T14:41:17;21.80;99.90
16995;DHT22;8614;48.522;9.206;2022-09-09T14:43:45;21.80;99.90
16995;DHT22;8614;48.522;9.206;2022-09-09T14:46:15;21.80;99.90
16995;DHT22;8614;48.522;9.206;2022-09-09T14:48:43;21.90;99.90
16995;DHT22;8614;48.522;9.206;2022-09-09T14:51:12;22.00;99.90
16995;DHT22;8614;48.522;9.206;2022-09-09T14:53:41;22.10;99.90
16995;DHT22;8614;48.522;9.206;2022-09-09T14:56:10;22.10;99.90
16995;DHT22;8614;48.522;9.206;2022-09-09T14:58:37;22.10;99.90
16995;DHT22;8614;48.522;9.206;2022-09-09T15:01:06;22.10;99.90
16995;DHT22;8614;48.522;9.206;2022-09-09T15:03:34;22.00;99.90
16995;DHT22;8614;48.522;9.206;2022-09-09T15:06:06;22.00;99.90
16995;DHT22;8614;48.522;9.206;2022-09-09T15:08:34;21.80;99.90
16995;DHT22;8614;48.522;9.206;2022-09-09T15:11:01;21.70;99.90
16995;DHT22;8614;48.522;9.206;2022-09-09T15:13:29;21.70;99.90
16995;DHT22;8614;48.522;9.206;2022-09-09T15:16:03;21.60;99.90
16995;DHT22;8614;48.522;9.206;2022-09-09T15:18:30;21.50;99.90
16995;DHT22;8614;48.522;9.206;2022-09-09T15:21:00;21.60;99.90
16995;DHT22;8614;48.522;9.206;2022-09-09T15:23:28;21.60;99.90
16995;DHT22;8614;48.522;9.206;2022-09-09T15:25:57;21.80;99.90
16995;DHT22;8614;48.522;9.206;2022-09-09T15:28:24;21.80;99.90
16995;DHT22;8614;48.522;9.206;2022-09-09T15:30:52;21.70;99.90
16995;DHT22;8614;48.522;9.206;2022-09-09T15:33:19;21.60;99.90
16995;DHT22;8614;48.522;9.206;2022-09-09T15:35:46;21.50;99.90
16995;DHT22;8614;48.522;9.206;2022-09-09T15:38:15;21.20;99.90
16995;DHT22;8614;48.522;9.206;2022-09-09T15:40:43;21.00;99.90
16995;DHT22;8614;48.522;9.206;2022-09-09T15:43:10;20.90;99.90
16995;DHT22;8614;48.522;9.206;2022-09-09T15:45:38;20.90;99.90
16995;DHT22;8614;48.522;9.206;2022-09-09T15:48:05;20.90;99.90
16995;DHT22;8614;48.522;9.206;2022-09-09T15:50:32;20.90;99.90
16995;DHT22;8614;48.522;9.206;2022-09-09T15:52:59;20.90;99.90
16995;DHT22;8614;48.522;9.206;2022-09-09T15:55:28;21.00;99.90
16995;DHT22;8614;48.522;9.206;2022-09-09T15:57:55;21.00;99.90
16995;DHT22;8614;48.522;9.206;2022-09-09T16:00:23;21.00;99.90
16995;DHT22;8614;48.522;9.206;2022-09-09T16:02:50;21.00;99.90
16995;DHT22;8614;48.522;9.206;2022-09-09T16:05:17;21.00;99.90
16995;DHT22;8614;48.522;9.206;2022-09-09T16:07:44;21.00;99.90
16995;DHT22;8614;48.522;9.206;2022-09-09T16:10:11;20.90;99.90
16995;DHT22;8614;48.522;9.206;2022-09-09T16:12:40;20.90;99.90
16995;DHT22;8614;48.522;9.206;2022-09-09T16:15:08;21.00;99.90
16995;DHT22;8614;48.522;9.206;2022-09-09T16:17:35;21.00;99.90
16995;DHT22;8614;48.522;9.206;2022-09-09T16:20:04;21.10;99.90